createdAt,value
2016-10-27T00:00:01.506Z,83.70
2016-10-27T00:00:24.229Z,83.89
2016-10-27T00:00:45.960Z,84.16
2016-10-27T00:01:07.669Z,84.25
2016-10-27T00:01:29.400Z,84.52
2016-10-27T00:01:51.126Z,84.45
2016-10-27T00:02:12.858Z,83.98
2016-10-27T00:02:34.578Z,83.49
2016-10-27T00:02:56.326Z,83.01
2016-10-27T00:03:18.059Z,82.71
2016-10-27T00:03:39.784Z,82.62
2016-10-27T00:04:01.514Z,82.46
2016-10-27T00:04:23.289Z,82.27
2016-10-27T00:04:45.002Z,82.05
2016-10-27T00:05:06.722Z,82.01
2016-10-27T00:05:28.463Z,82.25
2016-10-27T00:05:50.178Z,82.31
2016-10-27T00:06:11.903Z,82.79
2016-10-27T00:06:33.621Z,83.14
2016-10-27T00:06:55.341Z,83.34
2016-10-27T00:07:17.069Z,83.58
2016-10-27T00:07:38.786Z,83.98
2016-10-27T00:08:00.506Z,84.36
2016-10-27T00:08:22.237Z,84.84
2016-10-27T00:08:44.968Z,85.28
2016-10-27T00:09:06.698Z,85.49
2016-10-27T00:09:28.421Z,85.38
2016-10-27T00:09:50.141Z,85.46
2016-10-27T00:10:11.855Z,85.40
2016-10-27T00:10:33.577Z,85.59
2016-10-27T00:10:55.298Z,85.73
2016-10-27T00:11:17.019Z,85.96
2016-10-27T00:11:38.736Z,85.98
2016-10-27T00:12:00.456Z,85.90
2016-10-27T00:12:22.188Z,85.79
2016-10-27T00:12:43.908Z,85.87
2016-10-27T00:13:05.630Z,85.97
2016-10-27T00:13:27.347Z,86.00
2016-10-27T00:13:49.061Z,85.76
2016-10-27T00:14:10.778Z,85.71
2016-10-27T00:14:32.497Z,85.76
2016-10-27T00:14:54.241Z,85.63
2016-10-27T00:15:15.992Z,85.66
2016-10-27T00:15:37.707Z,85.74
2016-10-27T00:15:59.426Z,85.71
2016-10-27T00:16:21.138Z,85.67
2016-10-27T00:16:42.855Z,85.30
2016-10-27T00:17:04.593Z,85.42
2016-10-27T00:17:26.318Z,85.63
2016-10-27T00:17:48.043Z,85.87
2016-10-27T00:18:09.761Z,85.90
2016-10-27T00:18:31.480Z,85.88
2016-10-27T00:18:53.198Z,86.03
2016-10-27T00:19:14.919Z,85.71
2016-10-27T00:19:36.652Z,85.57
2016-10-27T00:19:58.451Z,85.08
2016-10-27T00:20:46.690Z,83.73
2016-10-27T00:21:08.507Z,83.25
2016-10-27T00:21:30.226Z,83.06
2016-10-27T00:21:51.944Z,83.71
2016-10-27T00:22:13.671Z,84.33
2016-10-27T00:22:35.401Z,84.55
2016-10-27T00:22:57.130Z,84.60
2016-10-27T00:23:18.859Z,84.14
2016-10-27T00:23:40.598Z,83.98
2016-10-27T00:24:02.320Z,84.05
2016-10-27T00:24:24.039Z,83.64
2016-10-27T00:24:45.762Z,83.19
2016-10-27T00:25:07.478Z,82.92
2016-10-27T00:25:29.197Z,82.66
2016-10-27T00:25:50.924Z,82.47
2016-10-27T00:26:12.642Z,82.17
2016-10-27T00:26:34.375Z,82.11
2016-10-27T00:27:00.876Z,82.63
2016-10-27T00:27:22.599Z,82.87
2016-10-27T00:27:44.314Z,82.93
2016-10-27T00:28:06.037Z,83.18
2016-10-27T00:28:27.757Z,83.64
2016-10-27T00:28:49.475Z,83.87
2016-10-27T00:29:11.216Z,84.02
2016-10-27T00:29:37.707Z,83.61
2016-10-27T00:29:59.424Z,83.38
2016-10-27T00:30:21.163Z,83.40
2016-10-27T00:30:42.895Z,83.59
2016-10-27T00:31:04.620Z,84.20
2016-10-27T00:31:26.338Z,84.44
2016-10-27T00:31:48.063Z,84.67
2016-10-27T00:32:09.781Z,85.24
2016-10-27T00:32:31.508Z,85.10
2016-10-27T00:32:53.228Z,85.37
2016-10-27T00:33:14.964Z,85.57
2016-10-27T00:33:36.709Z,85.82
2016-10-27T00:33:58.428Z,86.15
2016-10-27T00:34:21.150Z,86.43
2016-10-27T00:34:42.881Z,86.36
2016-10-27T00:35:04.610Z,86.47
2016-10-27T00:35:26.332Z,86.28
2016-10-27T00:35:48.048Z,86.29
2016-10-27T00:36:09.777Z,86.43
2016-10-27T00:36:31.497Z,86.33
2016-10-27T00:36:53.213Z,86.30
2016-10-27T00:37:14.933Z,86.32
2016-10-27T00:37:36.655Z,86.15
2016-10-27T00:37:58.373Z,86.27
2016-10-27T00:38:20.095Z,86.40
2016-10-27T00:38:41.831Z,86.14
2016-10-27T00:39:03.540Z,85.25
2016-10-27T00:39:25.269Z,84.70
2016-10-27T00:39:46.981Z,84.80
2016-10-27T00:40:08.705Z,84.74
2016-10-27T00:40:30.426Z,84.35
2016-10-27T00:40:52.144Z,84.54
2016-10-27T00:41:13.868Z,84.65
2016-10-27T00:41:35.589Z,84.88
2016-10-27T00:41:57.309Z,84.88
2016-10-27T00:42:19.021Z,84.93
2016-10-27T00:42:40.735Z,84.66
2016-10-27T00:43:02.455Z,84.39
2016-10-27T00:43:24.177Z,84.05
2016-10-27T00:43:45.896Z,83.85
2016-10-27T00:44:07.608Z,83.91
2016-10-27T00:44:29.330Z,83.65
2016-10-27T00:44:51.050Z,83.70
2016-10-27T00:45:12.777Z,83.85
2016-10-27T00:45:34.500Z,84.22
2016-10-27T00:45:56.224Z,84.69
2016-10-27T00:46:22.716Z,84.99
2016-10-27T00:46:44.428Z,85.03
2016-10-27T00:47:06.151Z,85.21
2016-10-27T00:47:27.884Z,85.57
2016-10-27T00:47:49.595Z,85.56
2016-10-27T00:48:11.318Z,85.59
2016-10-27T00:48:33.036Z,85.51
2016-10-27T00:48:54.761Z,85.73
2016-10-27T00:49:16.481Z,85.85
2016-10-27T00:49:38.206Z,85.89
2016-10-27T00:49:59.932Z,85.92
2016-10-27T00:50:21.646Z,85.82
2016-10-27T00:50:43.366Z,85.93
2016-10-27T00:51:05.084Z,86.14
2016-10-27T00:51:26.806Z,86.35
2016-10-27T00:51:48.521Z,86.79
2016-10-27T00:52:10.254Z,86.98
2016-10-27T00:52:31.978Z,86.93
2016-10-27T00:52:53.708Z,86.93
2016-10-27T00:53:15.428Z,86.27
2016-10-27T00:53:37.150Z,85.78
2016-10-27T00:53:58.880Z,85.61
2016-10-27T00:54:20.594Z,85.53
2016-10-27T00:54:42.320Z,85.89
2016-10-27T00:55:04.039Z,86.46
2016-10-27T00:55:25.752Z,86.39
2016-10-27T00:55:47.482Z,86.46
2016-10-27T00:56:09.221Z,86.54
2016-10-27T00:56:30.940Z,86.64
2016-10-27T00:56:52.657Z,86.48
2016-10-27T00:57:14.379Z,86.32
2016-10-27T00:57:36.104Z,86.10
2016-10-27T00:57:57.828Z,86.19
2016-10-27T00:58:19.553Z,86.26
2016-10-27T00:58:41.356Z,86.33
2016-10-27T00:59:03.077Z,86.43
2016-10-27T00:59:29.579Z,86.29
2016-10-27T00:59:51.420Z,85.97
2016-10-27T01:00:13.136Z,85.23
2016-10-27T01:00:34.854Z,84.68
2016-10-27T01:00:56.578Z,84.23
2016-10-27T01:01:18.306Z,83.47
2016-10-27T01:01:40.037Z,83.16
2016-10-27T01:02:01.763Z,82.93
2016-10-27T01:02:23.478Z,83.33
2016-10-27T01:02:45.193Z,83.75
2016-10-27T01:03:06.911Z,84.06
2016-10-27T01:03:28.639Z,84.37
2016-10-27T01:03:50.352Z,84.68
2016-10-27T01:04:12.072Z,84.90
2016-10-27T01:04:33.792Z,84.95
2016-10-27T01:04:55.511Z,84.88
2016-10-27T01:05:17.235Z,84.00
2016-10-27T01:05:38.949Z,83.31
2016-10-27T01:06:00.667Z,83.42
2016-10-27T01:06:27.158Z,83.68
2016-10-27T01:06:48.877Z,83.71
2016-10-27T01:07:10.595Z,84.11
2016-10-27T01:07:32.333Z,84.69
2016-10-27T01:07:54.051Z,85.04
2016-10-27T01:08:15.764Z,85.33
2016-10-27T01:08:37.486Z,85.62
2016-10-27T01:08:59.202Z,86.12
2016-10-27T01:09:20.931Z,86.29
2016-10-27T01:09:43.647Z,86.24
2016-10-27T01:10:05.389Z,86.14
2016-10-27T01:10:27.108Z,86.28
2016-10-27T01:10:48.828Z,86.42
2016-10-27T01:11:10.559Z,86.60
2016-10-27T01:11:32.293Z,86.77
2016-10-27T01:11:54.011Z,86.89
2016-10-27T01:12:42.212Z,87.26
2016-10-27T01:13:03.934Z,87.13
2016-10-27T01:13:25.648Z,87.08
2016-10-27T01:13:47.372Z,87.21
2016-10-27T01:14:09.098Z,87.19
2016-10-27T01:14:30.822Z,87.30
2016-10-27T01:14:52.540Z,87.17
2016-10-27T01:15:14.260Z,86.99
2016-10-27T01:15:35.983Z,86.78
2016-10-27T01:15:57.703Z,86.62
2016-10-27T01:16:19.422Z,86.58
2016-10-27T01:16:41.154Z,86.53
2016-10-27T01:17:02.876Z,86.47
2016-10-27T01:17:24.594Z,86.52
2016-10-27T01:17:46.305Z,86.20
2016-10-27T01:18:08.036Z,85.34
2016-10-27T01:18:29.754Z,84.84
2016-10-27T01:18:51.470Z,84.69
2016-10-27T01:19:13.196Z,84.69
2016-10-27T01:19:34.910Z,84.84
2016-10-27T01:19:56.635Z,84.92
2016-10-27T01:20:18.357Z,85.22
2016-10-27T01:20:40.078Z,85.71
2016-10-27T01:21:01.803Z,86.01
2016-10-27T01:21:23.539Z,86.27
2016-10-27T01:21:45.261Z,86.44
2016-10-27T01:22:06.973Z,86.43
2016-10-27T01:22:28.691Z,86.48
2016-10-27T01:22:50.431Z,86.65
2016-10-27T01:23:13.146Z,86.82
2016-10-27T01:23:34.868Z,86.75
2016-10-27T01:23:56.593Z,86.55
2016-10-27T01:24:18.311Z,86.43
2016-10-27T01:24:40.071Z,86.35
2016-10-27T01:25:01.804Z,86.17
2016-10-27T01:25:23.529Z,86.05
2016-10-27T01:25:45.250Z,85.94
2016-10-27T01:26:06.966Z,85.75
2016-10-27T01:26:28.685Z,85.60
2016-10-27T01:26:50.522Z,85.53
2016-10-27T01:27:12.242Z,85.66
2016-10-27T01:27:33.959Z,85.62
2016-10-27T01:27:55.676Z,85.49
2016-10-27T01:28:17.399Z,85.31
2016-10-27T01:28:39.125Z,85.49
2016-10-27T01:29:00.850Z,85.72
2016-10-27T01:29:22.573Z,85.76
2016-10-27T01:29:44.280Z,86.02
2016-10-27T01:30:06.003Z,86.29
2016-10-27T01:30:27.721Z,86.39
2016-10-27T01:30:49.452Z,86.37
2016-10-27T01:31:11.171Z,86.51
2016-10-27T01:31:32.888Z,86.69
2016-10-27T01:31:54.610Z,86.65
2016-10-27T01:32:16.333Z,86.52
2016-10-27T01:32:38.066Z,86.38
2016-10-27T01:32:59.778Z,86.06
2016-10-27T01:33:21.496Z,86.03
2016-10-27T01:33:43.262Z,85.91
2016-10-27T01:34:04.979Z,85.59
2016-10-27T01:34:26.695Z,85.58
2016-10-27T01:34:48.412Z,85.68
2016-10-27T01:35:10.133Z,85.56
2016-10-27T01:35:31.862Z,85.66
2016-10-27T01:35:53.582Z,85.53
2016-10-27T01:36:15.309Z,85.16
2016-10-27T01:36:37.025Z,84.49
2016-10-27T01:36:58.743Z,84.23
2016-10-27T01:37:20.461Z,84.32
2016-10-27T01:37:42.178Z,84.37
2016-10-27T01:38:03.901Z,84.28
2016-10-27T01:38:25.627Z,84.66
2016-10-27T01:39:13.830Z,85.24
2016-10-27T01:39:35.556Z,85.47
2016-10-27T01:39:57.275Z,85.81
2016-10-27T01:40:18.988Z,85.69
2016-10-27T01:40:40.702Z,85.84
2016-10-27T01:41:02.438Z,85.72
2016-10-27T01:41:25.163Z,85.55
2016-10-27T01:41:46.883Z,85.26
2016-10-27T01:42:08.601Z,84.79
2016-10-27T01:42:30.334Z,84.41
2016-10-27T01:42:52.063Z,84.20
2016-10-27T01:43:13.783Z,84.69
2016-10-27T01:43:38.122Z,85.26
2016-10-27T01:43:59.840Z,85.48
2016-10-27T01:44:21.555Z,85.74
2016-10-27T01:44:43.270Z,86.02
2016-10-27T01:45:04.989Z,86.07
2016-10-27T01:45:26.706Z,86.04
2016-10-27T01:45:48.443Z,86.19
2016-10-27T01:46:10.163Z,86.16
2016-10-27T01:46:36.649Z,85.97
2016-10-27T01:46:58.362Z,86.25
2016-10-27T01:47:20.078Z,86.61
2016-10-27T01:47:41.831Z,86.56
2016-10-27T01:48:03.545Z,86.44
2016-10-27T01:48:25.281Z,86.57
2016-10-27T01:48:47.009Z,86.75
2016-10-27T01:49:08.830Z,86.88
2016-10-27T01:49:30.549Z,86.82
2016-10-27T01:49:52.271Z,86.83
2016-10-27T01:50:13.986Z,86.95
2016-10-27T01:50:35.708Z,86.89
2016-10-27T01:50:57.423Z,86.93
2016-10-27T01:51:19.145Z,86.83
2016-10-27T01:51:40.866Z,86.89
2016-10-27T01:52:02.585Z,86.79
2016-10-27T01:52:24.294Z,86.88
2016-10-27T01:52:46.017Z,87.01
2016-10-27T01:53:07.738Z,87.02
2016-10-27T01:53:29.458Z,86.92
2016-10-27T01:53:51.187Z,86.92
2016-10-27T01:54:12.908Z,86.96
2016-10-27T01:54:34.627Z,87.02
2016-10-27T01:54:56.346Z,86.92
2016-10-27T01:55:18.067Z,86.91
2016-10-27T01:55:39.887Z,86.86
2016-10-27T01:56:01.596Z,87.08
2016-10-27T01:56:23.335Z,87.04
2016-10-27T01:56:45.061Z,86.84
2016-10-27T01:57:06.983Z,86.63
2016-10-27T01:57:28.697Z,86.33
2016-10-27T01:57:50.428Z,85.85
2016-10-27T01:58:12.148Z,85.91
2016-10-27T01:58:33.887Z,86.26
2016-10-27T01:58:55.617Z,86.35
2016-10-27T01:59:17.352Z,86.33
2016-10-27T01:59:39.075Z,86.16
2016-10-27T02:00:00.785Z,86.28
2016-10-27T02:00:22.504Z,86.16
2016-10-27T02:00:44.221Z,86.08
2016-10-27T02:01:05.947Z,86.00
2016-10-27T02:01:27.662Z,86.29
2016-10-27T02:01:49.379Z,86.52
2016-10-27T02:02:11.107Z,86.60
2016-10-27T02:02:32.844Z,86.77
2016-10-27T02:02:54.563Z,87.08
2016-10-27T02:03:16.292Z,87.11
2016-10-27T02:03:38.011Z,86.66
2016-10-27T02:03:59.735Z,86.60
2016-10-27T02:04:21.463Z,86.82
2016-10-27T02:04:43.172Z,86.95
2016-10-27T02:05:04.887Z,87.10
2016-10-27T02:05:26.597Z,87.37
2016-10-27T02:05:48.321Z,87.57
2016-10-27T02:06:10.043Z,87.53
2016-10-27T02:06:31.773Z,87.13
2016-10-27T02:06:53.500Z,86.19
2016-10-27T02:07:15.212Z,85.59
2016-10-27T02:07:36.934Z,85.24
2016-10-27T02:07:58.654Z,85.07
2016-10-27T02:08:20.370Z,85.19
2016-10-27T02:08:42.087Z,85.41
2016-10-27T02:09:03.809Z,85.58
2016-10-27T02:09:25.526Z,85.77
2016-10-27T02:09:47.245Z,86.11
2016-10-27T02:10:08.967Z,86.49
2016-10-27T02:10:30.747Z,86.76
2016-10-27T02:10:52.460Z,86.96
2016-10-27T02:11:14.182Z,87.26
2016-10-27T02:11:35.934Z,87.31
2016-10-27T02:11:57.654Z,87.57
2016-10-27T02:12:19.372Z,87.67
2016-10-27T02:12:41.091Z,87.48
2016-10-27T02:13:02.809Z,87.64
2016-10-27T02:13:25.523Z,87.45
2016-10-27T02:13:47.306Z,86.95
2016-10-27T02:14:10.017Z,87.04
2016-10-27T02:14:31.733Z,87.09
2016-10-27T02:14:53.456Z,86.77
2016-10-27T02:15:15.167Z,86.01
2016-10-27T02:15:36.894Z,85.52
2016-10-27T02:15:58.616Z,84.99
2016-10-27T02:16:20.338Z,84.74
2016-10-27T02:16:42.065Z,84.86
2016-10-27T02:17:03.786Z,85.09
2016-10-27T02:17:25.503Z,85.57
2016-10-27T02:17:47.228Z,85.81
2016-10-27T02:18:08.943Z,86.03
2016-10-27T02:18:30.662Z,86.32
2016-10-27T02:18:52.377Z,86.39
2016-10-27T02:19:14.103Z,86.57
2016-10-27T02:19:35.819Z,86.44
2016-10-27T02:19:57.557Z,86.40
2016-10-27T02:20:19.289Z,86.16
2016-10-27T02:20:41.003Z,85.82
2016-10-27T02:21:02.725Z,85.61
2016-10-27T02:21:24.461Z,85.67
2016-10-27T02:21:46.177Z,85.77
2016-10-27T02:22:07.903Z,85.99
2016-10-27T02:22:29.619Z,86.18
2016-10-27T02:22:56.130Z,85.69
2016-10-27T02:23:17.859Z,85.84
2016-10-27T02:23:39.575Z,85.75
2016-10-27T02:24:01.320Z,85.37
2016-10-27T02:24:23.045Z,85.35
2016-10-27T02:24:44.761Z,84.78
2016-10-27T02:25:06.480Z,84.65
2016-10-27T02:25:28.195Z,84.07
2016-10-27T02:25:49.909Z,83.95
2016-10-27T02:26:11.644Z,83.75
2016-10-27T02:26:33.361Z,83.49
2016-10-27T02:26:55.080Z,83.86
2016-10-27T02:27:16.806Z,84.58
2016-10-27T02:27:38.523Z,85.61
2016-10-27T02:28:00.238Z,85.70
2016-10-27T02:28:21.961Z,85.45
2016-10-27T02:28:43.705Z,85.27
2016-10-27T02:29:05.424Z,85.53
2016-10-27T02:29:27.152Z,85.87
2016-10-27T02:29:53.639Z,85.81
2016-10-27T02:30:15.352Z,86.14
2016-10-27T02:30:37.080Z,86.44
2016-10-27T02:30:58.801Z,85.93
2016-10-27T02:31:20.518Z,85.77
2016-10-27T02:31:42.238Z,85.69
2016-10-27T02:32:03.966Z,85.91
2016-10-27T02:32:25.685Z,85.60
2016-10-27T02:32:47.404Z,86.02
2016-10-27T02:33:09.156Z,85.81
2016-10-27T02:33:30.886Z,85.36
2016-10-27T02:33:52.598Z,85.01
2016-10-27T02:34:14.315Z,84.62
2016-10-27T02:34:36.098Z,84.57
2016-10-27T02:34:57.825Z,84.69
2016-10-27T02:35:19.546Z,85.14
2016-10-27T02:35:41.262Z,85.35
2016-10-27T02:36:02.981Z,85.21
2016-10-27T02:36:24.742Z,85.10
2016-10-27T02:36:46.500Z,84.63
2016-10-27T02:37:08.212Z,84.39
2016-10-27T02:37:29.931Z,84.54
2016-10-27T02:37:51.651Z,84.86
2016-10-27T02:38:13.369Z,84.72
2016-10-27T02:38:39.852Z,84.54
2016-10-27T02:39:01.575Z,84.57
2016-10-27T02:39:23.309Z,85.00
2016-10-27T02:39:45.032Z,85.56
2016-10-27T02:40:06.759Z,85.20
2016-10-27T02:40:28.493Z,84.80
2016-10-27T02:40:50.208Z,84.72
2016-10-27T02:41:11.925Z,84.97
2016-10-27T02:41:38.415Z,84.79
2016-10-27T02:42:00.145Z,85.34
2016-10-27T02:42:21.863Z,85.84
2016-10-27T02:42:43.594Z,86.14
2016-10-27T02:43:05.326Z,86.10
2016-10-27T02:43:27.056Z,85.61
2016-10-27T02:43:48.771Z,85.46
2016-10-27T02:44:10.509Z,85.41
2016-10-27T02:44:32.221Z,85.41
2016-10-27T02:44:53.942Z,85.30
2016-10-27T02:45:15.686Z,85.33
2016-10-27T02:45:37.408Z,85.72
2016-10-27T02:45:59.122Z,85.72
2016-10-27T02:46:20.839Z,86.28
2016-10-27T02:46:42.564Z,86.29
2016-10-27T02:47:04.307Z,86.27
2016-10-27T02:47:26.036Z,85.78
2016-10-27T02:47:47.744Z,85.81
2016-10-27T02:48:10.462Z,85.60
2016-10-27T02:48:32.182Z,85.24
2016-10-27T02:48:53.908Z,84.90
2016-10-27T02:49:15.624Z,84.68
2016-10-27T02:49:37.347Z,85.29
2016-10-27T02:49:59.067Z,85.56
2016-10-27T02:50:20.781Z,85.86
2016-10-27T02:50:42.503Z,86.26
2016-10-27T02:51:04.221Z,86.63
2016-10-27T02:51:25.959Z,86.93
2016-10-27T02:51:47.685Z,87.14
2016-10-27T02:52:09.404Z,87.27
2016-10-27T02:52:31.241Z,87.15
2016-10-27T02:52:52.859Z,87.27
2016-10-27T02:53:14.590Z,87.43
2016-10-27T02:53:36.310Z,87.38
2016-10-27T02:53:58.057Z,87.54
2016-10-27T02:54:19.758Z,87.47
2016-10-27T02:54:41.475Z,87.84
2016-10-27T02:55:03.207Z,88.11
2016-10-27T02:55:24.935Z,88.05
2016-10-27T02:55:46.671Z,88.01
2016-10-27T02:56:09.416Z,88.01
2016-10-27T02:56:31.139Z,87.95
2016-10-27T02:56:52.856Z,87.88
2016-10-27T02:57:14.708Z,87.89
2016-10-27T02:57:36.433Z,87.88
2016-10-27T02:57:58.150Z,87.76
2016-10-27T02:58:19.871Z,87.85
2016-10-27T02:58:41.588Z,87.97
2016-10-27T02:59:03.304Z,87.53
2016-10-27T02:59:25.022Z,86.97
2016-10-27T02:59:46.741Z,86.75
2016-10-27T03:00:08.457Z,86.95
2016-10-27T03:00:30.269Z,87.19
2016-10-27T03:00:51.978Z,87.48
2016-10-27T03:01:13.688Z,87.46
2016-10-27T03:01:38.082Z,87.43
2016-10-27T03:01:59.803Z,87.59
2016-10-27T03:02:21.521Z,87.71
2016-10-27T03:02:43.241Z,87.62
2016-10-27T03:03:04.959Z,87.02
2016-10-27T03:03:31.451Z,86.66
2016-10-27T03:03:53.171Z,86.45
2016-10-27T03:04:14.888Z,86.39
2016-10-27T03:04:36.614Z,86.24
2016-10-27T03:04:58.328Z,85.97
2016-10-27T03:05:20.048Z,85.57
2016-10-27T03:05:41.761Z,85.00
2016-10-27T03:06:03.470Z,84.95
2016-10-27T03:06:25.199Z,84.98
2016-10-27T03:06:46.926Z,85.12
2016-10-27T03:07:08.647Z,85.94
2016-10-27T03:07:30.361Z,86.63
2016-10-27T03:07:52.092Z,86.99
2016-10-27T03:08:13.813Z,87.22
2016-10-27T03:08:35.531Z,87.35
2016-10-27T03:08:57.244Z,87.33
2016-10-27T03:09:19.070Z,87.31
2016-10-27T03:09:40.797Z,87.18
2016-10-27T03:10:02.499Z,87.03
2016-10-27T03:10:24.221Z,87.12
2016-10-27T03:10:45.935Z,86.98
2016-10-27T03:11:07.664Z,86.92
2016-10-27T03:11:29.398Z,86.84
2016-10-27T03:11:51.114Z,87.05
2016-10-27T03:12:12.839Z,87.07
2016-10-27T03:12:34.555Z,87.26
2016-10-27T03:12:56.279Z,87.43
2016-10-27T03:13:18.013Z,87.50
2016-10-27T03:13:39.809Z,87.22
2016-10-27T03:14:01.532Z,86.65
2016-10-27T03:14:23.260Z,86.47
2016-10-27T03:14:44.979Z,86.09
2016-10-27T03:15:06.693Z,85.69
2016-10-27T03:15:28.410Z,85.99
2016-10-27T03:15:50.124Z,86.16
2016-10-27T03:16:11.838Z,86.32
2016-10-27T03:16:33.554Z,86.42
2016-10-27T03:16:55.268Z,86.69
2016-10-27T03:17:16.988Z,86.84
2016-10-27T03:17:38.701Z,86.98
2016-10-27T03:18:00.419Z,87.18
2016-10-27T03:18:48.625Z,87.02
2016-10-27T03:19:10.350Z,87.02
2016-10-27T03:19:32.070Z,86.98
2016-10-27T03:19:53.789Z,87.02
2016-10-27T03:20:15.507Z,87.01
2016-10-27T03:20:37.223Z,86.99
2016-10-27T03:20:58.949Z,87.06
2016-10-27T03:21:20.673Z,86.95
2016-10-27T03:21:42.391Z,86.52
2016-10-27T03:22:04.122Z,85.94
2016-10-27T03:22:25.849Z,85.67
2016-10-27T03:22:47.587Z,85.30
2016-10-27T03:23:09.310Z,85.01
2016-10-27T03:23:31.028Z,85.01
2016-10-27T03:23:52.751Z,85.50
2016-10-27T03:24:14.467Z,86.08
2016-10-27T03:24:36.188Z,86.54
2016-10-27T03:24:57.908Z,86.93
2016-10-27T03:25:19.631Z,87.12
2016-10-27T03:25:41.347Z,87.42
2016-10-27T03:26:03.072Z,87.47
2016-10-27T03:26:24.799Z,87.42
2016-10-27T03:26:46.513Z,87.35
2016-10-27T03:27:08.229Z,87.33
2016-10-27T03:27:29.944Z,87.22
2016-10-27T03:27:51.663Z,87.06
2016-10-27T03:28:14.404Z,86.85
2016-10-27T03:28:36.115Z,85.87
2016-10-27T03:28:57.835Z,85.35
2016-10-27T03:29:19.590Z,85.51
2016-10-27T03:29:41.312Z,85.59
2016-10-27T03:30:03.030Z,85.73
2016-10-27T03:30:24.746Z,85.91
2016-10-27T03:30:46.481Z,86.29
2016-10-27T03:31:08.204Z,86.51
2016-10-27T03:31:29.946Z,86.11
2016-10-27T03:31:56.432Z,85.35
2016-10-27T03:32:18.159Z,84.80
2016-10-27T03:32:39.882Z,84.45
2016-10-27T03:33:01.606Z,84.24
2016-10-27T03:33:23.324Z,83.90
2016-10-27T03:33:45.069Z,83.90
2016-10-27T03:34:06.786Z,84.50
2016-10-27T03:34:28.515Z,84.60
2016-10-27T03:34:50.243Z,84.89
2016-10-27T03:35:11.963Z,85.53
2016-10-27T03:35:33.677Z,85.64
2016-10-27T03:35:55.401Z,85.88
2016-10-27T03:36:17.130Z,85.97
2016-10-27T03:36:39.842Z,85.83
2016-10-27T03:37:01.574Z,86.07
2016-10-27T03:37:23.291Z,86.63
2016-10-27T03:37:45.026Z,86.93
2016-10-27T03:38:07.752Z,86.69
2016-10-27T03:38:29.479Z,86.47
2016-10-27T03:38:51.196Z,86.55
2016-10-27T03:39:12.913Z,86.19
2016-10-27T03:39:34.630Z,85.56
2016-10-27T03:39:56.347Z,85.14
2016-10-27T03:40:19.065Z,85.31
2016-10-27T03:40:40.789Z,85.24
2016-10-27T03:41:02.512Z,85.17
2016-10-27T03:41:25.233Z,85.24
2016-10-27T03:41:46.960Z,85.09
2016-10-27T03:42:08.685Z,85.47
2016-10-27T03:42:30.416Z,85.74
2016-10-27T03:42:53.131Z,86.05
2016-10-27T03:43:14.851Z,86.78
2016-10-27T03:43:36.587Z,87.42
2016-10-27T03:43:58.309Z,87.62
2016-10-27T03:44:20.029Z,87.42
2016-10-27T03:44:41.746Z,87.84
2016-10-27T03:45:03.463Z,88.29
2016-10-27T03:45:25.193Z,88.46
2016-10-27T03:45:46.925Z,88.26
2016-10-27T03:46:08.637Z,88.12
2016-10-27T03:46:30.361Z,87.96
2016-10-27T03:46:52.082Z,88.21
2016-10-27T03:47:13.804Z,88.37
2016-10-27T03:47:35.528Z,88.22
2016-10-27T03:47:57.258Z,88.30
2016-10-27T03:48:19.973Z,88.00
2016-10-27T03:48:42.693Z,88.05
2016-10-27T03:49:04.413Z,88.31
2016-10-27T03:49:30.908Z,88.35
2016-10-27T03:49:52.626Z,88.43
2016-10-27T03:50:14.353Z,88.62
2016-10-27T03:50:36.075Z,88.46
2016-10-27T03:50:57.806Z,88.16
2016-10-27T03:51:19.523Z,88.05
2016-10-27T03:51:41.243Z,88.23
2016-10-27T03:52:02.966Z,88.15
2016-10-27T03:52:24.680Z,88.16
2016-10-27T03:52:46.417Z,88.03
2016-10-27T03:53:08.147Z,87.58
2016-10-27T03:53:29.893Z,87.05
2016-10-27T03:53:51.610Z,86.78
2016-10-27T03:54:13.329Z,86.76
2016-10-27T03:54:35.048Z,86.32
2016-10-27T03:54:56.765Z,86.34
2016-10-27T03:55:19.477Z,86.06
2016-10-27T03:55:41.214Z,86.09
2016-10-27T03:56:02.939Z,85.94
2016-10-27T03:56:24.672Z,85.95
2016-10-27T03:56:46.390Z,86.18
2016-10-27T03:57:08.123Z,86.39
2016-10-27T03:57:29.845Z,86.80
2016-10-27T03:57:51.564Z,86.75
2016-10-27T03:58:13.292Z,86.58
2016-10-27T03:58:35.036Z,86.50
2016-10-27T03:58:56.766Z,86.73
2016-10-27T03:59:18.485Z,87.00
2016-10-27T03:59:40.208Z,87.51
2016-10-27T04:00:01.931Z,87.93
2016-10-27T04:00:23.659Z,88.15
2016-10-27T04:00:45.371Z,88.07
2016-10-27T04:01:07.108Z,87.65
2016-10-27T04:01:33.594Z,87.03
2016-10-27T04:01:55.312Z,86.92
2016-10-27T04:02:17.037Z,86.80
2016-10-27T04:02:38.771Z,86.82
2016-10-27T04:03:00.486Z,86.55
2016-10-27T04:03:22.211Z,86.32
2016-10-27T04:03:43.939Z,86.04
2016-10-27T04:04:05.655Z,85.83
2016-10-27T04:04:27.381Z,86.04
2016-10-27T04:04:49.116Z,85.94
2016-10-27T04:05:10.858Z,86.15
2016-10-27T04:05:32.572Z,86.56
2016-10-27T04:05:54.293Z,86.63
2016-10-27T04:06:16.024Z,86.54
2016-10-27T04:06:37.742Z,86.60
2016-10-27T04:06:59.476Z,87.13
2016-10-27T04:07:21.189Z,87.41
2016-10-27T04:07:42.902Z,87.39
2016-10-27T04:08:04.624Z,87.60
2016-10-27T04:08:26.360Z,87.55
2016-10-27T04:08:48.091Z,87.72
2016-10-27T04:09:09.812Z,87.91
2016-10-27T04:09:31.531Z,87.90
2016-10-27T04:09:53.258Z,88.00
2016-10-27T04:10:14.977Z,88.16
2016-10-27T04:10:36.703Z,88.69
2016-10-27T04:10:59.425Z,88.79
2016-10-27T04:11:21.137Z,89.14
2016-10-27T04:11:42.855Z,89.10
2016-10-27T04:12:04.575Z,88.68
2016-10-27T04:12:26.296Z,88.34
2016-10-27T04:12:48.005Z,88.28
2016-10-27T04:13:09.721Z,88.09
2016-10-27T04:13:31.534Z,88.18
2016-10-27T04:13:53.253Z,88.47
2016-10-27T04:14:14.980Z,88.41
2016-10-27T04:14:36.691Z,88.32
2016-10-27T04:14:58.423Z,88.77
2016-10-27T04:15:20.140Z,89.29
2016-10-27T04:15:41.861Z,89.61
2016-10-27T04:16:03.595Z,89.87
2016-10-27T04:16:25.310Z,89.91
2016-10-27T04:16:47.044Z,89.99
2016-10-27T04:17:08.772Z,90.08
2016-10-27T04:17:30.497Z,89.51
2016-10-27T04:17:52.226Z,89.20
2016-10-27T04:18:13.947Z,89.32
2016-10-27T04:18:35.667Z,89.42
2016-10-27T04:18:58.391Z,89.45
2016-10-27T04:19:20.123Z,89.26
2016-10-27T04:19:42.843Z,88.52
2016-10-27T04:20:09.334Z,88.13
2016-10-27T04:20:31.073Z,87.84
2016-10-27T04:20:52.793Z,87.32
2016-10-27T04:21:14.526Z,87.12
2016-10-27T04:21:36.256Z,86.81
2016-10-27T04:21:57.977Z,86.58
2016-10-27T04:22:19.696Z,86.47
2016-10-27T04:22:41.416Z,86.52
2016-10-27T04:23:03.148Z,87.01
2016-10-27T04:23:24.870Z,87.03
2016-10-27T04:23:46.588Z,86.90
2016-10-27T04:24:08.368Z,87.21
2016-10-27T04:24:30.020Z,87.36
2016-10-27T04:24:51.739Z,87.40
2016-10-27T04:25:13.460Z,87.21
2016-10-27T04:25:35.182Z,87.04
2016-10-27T04:25:56.900Z,86.70
2016-10-27T04:26:18.625Z,86.47
2016-10-27T04:26:40.347Z,86.38
2016-10-27T04:27:02.068Z,86.55
2016-10-27T04:27:28.561Z,86.26
2016-10-27T04:27:50.280Z,86.48
2016-10-27T04:28:12.006Z,86.87
2016-10-27T04:28:33.725Z,87.22
2016-10-27T04:28:55.470Z,87.10
2016-10-27T04:29:17.188Z,86.79
2016-10-27T04:29:38.912Z,86.87
2016-10-27T04:30:00.691Z,86.68
2016-10-27T04:30:22.415Z,86.57
2016-10-27T04:30:48.945Z,86.47
2016-10-27T04:31:10.628Z,86.47
2016-10-27T04:31:32.338Z,86.44
2016-10-27T04:31:54.052Z,86.50
2016-10-27T04:32:15.767Z,86.43
2016-10-27T04:32:37.483Z,86.72
2016-10-27T04:32:59.201Z,87.15
2016-10-27T04:33:20.935Z,86.95
2016-10-27T04:33:42.676Z,86.70
2016-10-27T04:34:04.396Z,86.60
2016-10-27T04:34:26.112Z,86.72
2016-10-27T04:34:47.858Z,86.85
2016-10-27T04:35:36.056Z,87.00
2016-10-27T04:35:57.790Z,86.84
2016-10-27T04:36:19.534Z,86.96
2016-10-27T04:36:41.250Z,87.09
2016-10-27T04:37:02.968Z,87.26
2016-10-27T04:37:24.681Z,87.51
2016-10-27T04:37:46.402Z,87.68
2016-10-27T04:38:08.116Z,87.69
2016-10-27T04:38:29.831Z,87.84
2016-10-27T04:38:51.553Z,87.66
2016-10-27T04:39:13.286Z,87.56
2016-10-27T04:39:35.012Z,87.91
2016-10-27T04:39:56.737Z,88.15
2016-10-27T04:40:18.457Z,88.32
2016-10-27T04:40:40.259Z,88.02
2016-10-27T04:41:01.977Z,87.83
2016-10-27T04:41:23.697Z,87.84
2016-10-27T04:41:45.413Z,87.67
2016-10-27T04:42:08.134Z,87.32
2016-10-27T04:42:29.862Z,87.04
2016-10-27T04:42:51.727Z,86.88
2016-10-27T04:43:13.449Z,86.84
2016-10-27T04:43:35.168Z,86.80